Time;durP1;ratioP1;P1;durP2;ratioP2;P2;SDS_P1;SDS_P2;PMS_P1;PMS_P2;Temp;Humidity;BMP_temperature;BMP_pressure;BME280_temperature;BME280_humidity;BME280_pressure;Samples;Min_cycle;Max_cycle;Signal;HPM_P1;HPM_P2
2023/10/28 00:00:40;;;;;;;10.85;2.72;;;;;;;18.05;83.28;63866.44;5012121;28;20242;-82
2023/10/28 00:03:07;;;;;;;3.20;2.15;;;;;;;18.05;83.62;63863.88;5015013;28;20199;-83
2023/10/28 00:05:34;;;;;;;6.80;2.25;;;;;;;17.96;84.63;63855.00;5012025;28;20301;-82
2023/10/28 00:08:03;;;;;;;4.40;3.03;;;;;;;18.08;84.43;63867.50;5013189;28;20191;-83
2023/10/28 00:10:31;;;;;;;4.90;2.40;;;;;;;18.01;84.32;63862.28;5011185;28;20222;-83
2023/10/28 00:12:59;;;;;;;1.85;1.60;;;;;;;17.96;82.67;63855.00;5013153;28;20210;-82
2023/10/28 00:15:26;;;;;;;3.15;2.00;;;;;;;18.00;83.66;63861.22;5013732;28;20238;-82
2023/10/28 00:17:53;;;;;;;2.20;1.90;;;;;;;18.00;83.84;63859.16;5014998;28;20199;-81
2023/10/28 00:20:21;;;;;;;2.35;1.90;;;;;;;17.86;85.88;63844.56;5016245;28;20458;-82
2023/10/28 00:22:53;;;;;;;7.50;3.08;;;;;;;17.60;89.02;63822.66;5013877;28;20500;-83
2023/10/28 00:25:25;;;;;;;2.95;2.50;;;;;;;17.55;90.07;63817.44;5014218;28;20269;-83
2023/10/28 00:27:55;;;;;;;6.25;2.55;;;;;;;17.50;89.80;63807.09;5011765;28;20229;-82
2023/10/28 00:30:23;;;;;;;2.67;2.35;;;;;;;17.50;90.72;63809.66;5012992;28;20219;-83
2023/10/28 00:32:52;;;;;;;5.45;2.13;;;;;;;17.41;91.34;63794.63;5015027;28;20195;-83
2023/10/28 00:35:21;;;;;;;3.00;2.72;;;;;;;17.32;93.00;63788.34;5008412;28;20219;-83
2023/10/28 00:37:49;;;;;;;3.67;1.90;;;;;;;17.22;92.64;63780.50;5012509;28;20203;-82
2023/10/28 00:40:17;;;;;;;4.00;2.38;;;;;;;17.25;91.87;63781.06;5025649;28;20230;-82
2023/10/28 00:42:46;;;;;;;2.40;2.30;;;;;;;17.31;92.45;63790.38;5013424;28;20214;-82
2023/10/28 00:45:15;;;;;;;4.75;2.15;;;;;;;17.27;92.07;63785.72;5005702;28;20226;-82
2023/10/28 00:47:45;;;;;;;3.53;2.40;;;;;;;17.32;92.05;63790.91;5011308;28;20270;-82
2023/10/28 00:50:14;;;;;;;2.85;2.20;;;;;;;17.27;92.91;63781.06;5011900;28;20198;-82
2023/10/28 00:52:44;;;;;;;3.05;2.85;;;;;;;17.31;94.48;63787.28;5013026;28;20255;-82
2023/10/28 00:55:12;;;;;;;7.85;2.40;;;;;;;17.17;95.25;63773.25;5009679;28;20487;-82
2023/10/28 00:57:41;;;;;;;2.97;2.13;;;;;;;17.42;94.37;63803.91;5010054;28;20259;-81
2023/10/28 01:00:11;;;;;;;3.17;2.90;;;;;;;17.39;94.79;63793.06;5011106;28;20206;-82
2023/10/28 01:02:42;;;;;;;2.53;2.42;;;;;;;17.33;94.87;63787.31;5013133;28;20258;-82
2023/10/28 01:05:11;;;;;;;4.07;2.20;;;;;;;17.08;96.85;63768.50;5010747;28;20423;-82
2023/10/28 01:07:40;;;;;;;3.55;2.55;;;;;;;17.23;97.26;63784.63;5013384;28;20202;-80
2023/10/28 01:10:08;;;;;;;2.20;2.10;;;;;;;17.28;96.72;63781.59;5012401;28;20202;-81
2023/10/28 01:12:35;;;;;;;2.70;2.50;;;;;;;17.26;95.34;63782.59;5010989;28;20238;-82
2023/10/28 01:15:03;;;;;;;3.35;2.42;;;;;;;17.32;96.32;63786.28;5008577;28;20234;-82
2023/10/28 01:17:32;;;;;;;4.07;3.10;;;;;;;17.31;96.79;63787.81;5010485;28;20194;-81
2023/10/28 01:19:59;;;;;;;4.22;2.45;;;;;;;17.28;95.64;63781.59;5012533;28;20217;-82
2023/10/28 01:22:28;;;;;;;5.32;3.10;;;;;;;17.35;95.46;63786.31;5004473;28;20229;-81
2023/10/28 01:24:55;;;;;;;3.17;2.67;;;;;;;17.27;96.00;63786.22;5005510;28;20217;-81
2023/10/28 01:27:22;;;;;;;4.60;2.65;;;;;;;17.25;96.01;63783.63;5011367;28;20198;-82
2023/10/28 01:29:51;;;;;;;2.40;2.20;;;;;;;17.28;96.27;63779.53;5011510;28;20199;-82
2023/10/28 01:32:18;;;;;;;6.07;2.22;;;;;;;17.33;95.49;63786.78;5008753;28;20230;-81
2023/10/28 01:34:49;;;;;;;6.28;2.28;;;;;;;17.11;96.79;63769.56;5012795;28;20225;-82
2023/10/28 01:37:17;;;;;;;4.32;2.30;;;;;;;17.30;95.51;63786.25;5012104;28;20285;-82
2023/10/28 01:39:48;;;;;;;3.25;2.70;;;;;;;17.24;96.03;63777.94;5010665;28;20213;-82
2023/10/28 01:42:15;;;;;;;3.13;2.30;;;;;;;17.27;95.91;63786.22;5010627;28;20561;-82
2023/10/28 01:44:42;;;;;;;2.22;1.80;;;;;;;17.28;94.52;63782.13;5011314;28;20311;-82
2023/10/28 01:47:10;;;;;;;3.78;1.80;;;;;;;17.41;91.26;63800.28;5012589;28;20241;-81
2023/10/28 01:49:38;;;;;;;2.22;1.90;;;;;;;17.49;90.38;63805.53;5010184;28;20190;-82
2023/10/28 01:52:07;;;;;;;2.10;1.80;;;;;;;17.47;88.05;63806.53;5011337;28;20286;-82
2023/10/28 01:54:35;;;;;;;3.63;1.85;;;;;;;17.64;87.16;63816.00;5012250;28;20222;-82
2023/10/28 01:57:05;;;;;;;4.38;2.13;;;;;;;17.64;86.62;63821.16;5010282;28;20261;-82
2023/10/28 01:59:32;;;;;;;2.08;1.85;;;;;;;17.71;86.22;63833.59;5011290;28;20218;-83
2023/10/28 02:02:02;;;;;;;2.08;1.90;;;;;;;17.70;86.36;63827.94;5012290;28;20239;-81
2023/10/28 02:04:30;;;;;;;2.35;1.58;;;;;;;17.77;84.31;63837.28;5011040;28;20191;-82
2023/10/28 02:06:57;;;;;;;4.18;2.13;;;;;;;17.77;84.64;63839.84;5010944;28;20284;-82
2023/10/28 02:09:25;;;;;;;2.45;1.52;;;;;;;17.72;85.47;63830.00;5010381;28;20274;-81
2023/10/28 02:11:53;;;;;;;3.25;2.20;;;;;;;17.78;84.09;63835.72;5010084;28;20253;-81
2023/10/28 02:14:23;;;;;;;2.58;1.85;;;;;;;17.79;82.58;63836.78;5011512;28;20198;-81
2023/10/28 02:16:50;;;;;;;2.88;1.83;;;;;;;17.83;80.99;63840.94;5010590;28;20225;-80
2023/10/28 02:19:20;;;;;;;4.25;2.33;;;;;;;17.75;82.16;63835.19;5010295;28;20202;-81
2023/10/28 02:21:48;;;;;;;3.70;1.70;;;;;;;17.93;81.93;63854.44;5010236;28;20234;-81
2023/10/28 02:24:16;;;;;;;3.72;2.33;;;;;;;17.84;83.39;63842.50;5010353;28;20230;-80
2023/10/28 02:26:44;;;;;;;1.80;1.70;;;;;;;17.84;81.08;63842.50;5010592;28;20233;-81
2023/10/28 02:29:11;;;;;;;2.80;2.00;;;;;;;17.91;80.93;63849.78;5011461;28;20399;-82
2023/10/28 02:31:40;;;;;;;4.15;2.15;;;;;;;17.93;81.71;63854.44;5011063;28;20238;-81
2023/10/28 02:34:07;;;;;;;2.08;1.80;;;;;;;17.91;81.28;63851.84;5010317;28;20198;-81
2023/10/28 02:36:34;;;;;;;1.88;1.77;;;;;;;17.95;82.09;63853.44;5007941;28;20345;-83
2023/10/28 02:39:02;;;;;;;2.05;1.77;;;;;;;17.90;82.16;63845.66;5003404;28;20195;-82
2023/10/28 02:41:30;;;;;;;1.83;1.73;;;;;;;17.79;83.30;63842.44;5011007;28;20432;-82
2023/10/28 02:43:58;;;;;;;1.50;1.40;;;;;;;17.80;84.54;63835.25;5010763;28;20205;-81
2023/10/28 02:46:26;;;;;;;1.48;1.48;;;;;;;17.79;85.46;63839.88;5009606;28;20554;-81
2023/10/28 02:48:55;;;;;;;2.70;1.85;;;;;;;17.75;85.68;63833.13;5010945;28;20198;-82
2023/10/28 02:51:22;;;;;;;1.70;1.60;;;;;;;17.63;86.29;63823.22;5009577;28;20246;-82
2023/10/28 02:53:49;;;;;;;1.77;1.63;;;;;;;17.62;86.04;63819.59;5010072;28;20198;-82
2023/10/28 02:56:16;;;;;;;1.83;1.65;;;;;;;17.59;85.17;63816.47;5007568;28;20238;-81
2023/10/28 02:58:43;;;;;;;3.15;2.20;;;;;;;17.57;85.96;63816.44;5009828;28;20253;-82
2023/10/28 03:01:11;;;;;;;1.85;1.75;;;;;;;17.53;84.65;63810.22;5011129;28;20242;-82
2023/10/28 03:03:39;;;;;;;7.72;1.98;;;;;;;17.38;86.22;63796.66;5009715;28;20194;-82
2023/10/28 03:06:08;;;;;;;1.85;1.75;;;;;;;17.30;87.63;63786.78;5009063;28;20294;-82
2023/10/28 03:08:35;;;;;;;2.22;2.13;;;;;;;17.34;88.40;63790.44;5010918;28;20217;-82
2023/10/28 03:11:02;;;;;;;3.03;1.83;;;;;;;17.17;88.76;63773.25;5010771;28;20229;-81
2023/10/28 03:13:29;;;;;;;1.95;1.85;;;;;;;17.25;89.54;63784.16;5009746;28;20209;-81
2023/10/28 03:15:57;;;;;;;2.03;1.90;;;;;;;17.13;89.70;63766.50;5010370;28;20226;-81
2023/10/28 03:18:24;;;;;;;2.63;2.22;;;;;;;17.07;90.15;63765.41;5003422;28;20200;-82
2023/10/28 03:20:51;;;;;;;3.15;1.80;;;;;;;16.96;90.97;63750.88;4990688;28;20219;-82
2023/10/28 03:23:20;;;;;;;4.78;2.38;;;;;;;16.97;90.78;63749.31;5011256;28;20230;-82
2023/10/28 03:25:47;;;;;;;2.95;2.70;;;;;;;16.89;90.35;63746.69;5009193;28;20266;-81
2023/10/28 03:28:14;;;;;;;2.97;2.67;;;;;;;16.91;91.66;63746.16;5004722;28;20207;-81
2023/10/28 03:30:41;;;;;;;3.25;2.55;;;;;;;16.77;92.76;63736.25;5010454;28;20226;-82
2023/10/28 03:33:08;;;;;;;5.95;2.40;;;;;;;16.61;95.43;63717.53;5013096;28;20198;-81
2023/10/28 03:35:35;;;;;;;2.88;2.67;;;;;;;16.51;96.95;63711.75;5013878;28;20242;-82
2023/10/28 03:38:02;;;;;;;4.40;2.80;;;;;;;16.30;98.09;63684.75;4995688;28;20211;-81
2023/10/28 03:40:31;;;;;;;5.75;2.88;;;;;;;16.35;99.99;63685.31;5007455;28;20226;-82
2023/10/28 03:42:59;;;;;;;3.80;2.50;;;;;;;16.31;100.00;63681.16;5012915;28;20230;-82
2023/10/28 03:45:26;;;;;;;6.68;2.42;;;;;;;16.15;100.00;63664.53;5012528;28;20226;-81
2023/10/28 03:47:53;;;;;;;3.15;2.85;;;;;;;16.04;100.00;63660.78;5014502;28;20370;-82
2023/10/28 03:50:21;;;;;;;6.38;2.50;;;;;;;15.90;100.00;63646.75;5012767;28;20246;-81
2023/10/28 03:52:49;;;;;;;3.40;3.10;;;;;;;15.85;100.00;63636.41;5013101;28;20291;-82
2023/10/28 03:55:16;;;;;;;5.28;2.80;;;;;;;15.80;100.00;63628.13;5012904;28;20425;-82
2023/10/28 03:57:45;;;;;;;6.28;2.33;;;;;;;15.69;100.00;63619.25;5013599;28;20203;-83
2023/10/28 04:00:13;;;;;;;7.68;3.03;;;;;;;15.65;100.00;63612.53;5014297;28;20202;-82
2023/10/28 04:02:40;;;;;;;7.38;3.15;;;;;;;15.64;100.00;63619.19;5006422;28;20307;-82
2023/10/28 04:05:10;;;;;;;5.68;3.08;;;;;;;15.44;100.00;63593.28;4993645;28;20401;-82
2023/10/28 04:07:37;;;;;;;4.65;3.08;;;;;;;15.52;100.00;63599.00;4997912;28;20214;-84
2023/10/28 04:10:07;;;;;;;8.65;3.35;;;;;;;15.52;100.00;63599.00;5007274;28;20227;-81
2023/10/28 04:12:35;;;;;;;6.03;3.35;;;;;;;15.49;100.00;63603.59;5010256;28;20250;-81
2023/10/28 04:15:04;;;;;;;6.15;3.15;;;;;;;15.50;100.00;63596.94;5012785;28;20195;-82
2023/10/28 04:17:32;;;;;;;7.45;3.58;;;;;;;15.48;100.00;63594.88;5012208;28;20491;-83
2023/10/28 04:20:00;;;;;;;3.80;2.92;;;;;;;15.35;100.00;63583.88;5012597;28;20234;-83
2023/10/28 04:22:28;;;;;;;2.85;2.65;;;;;;;15.39;100.00;63591.16;5010314;28;20456;-82
2023/10/28 04:24:56;;;;;;;3.55;3.25;;;;;;;15.51;100.00;63603.63;5013197;28;20198;-82
2023/10/28 04:27:23;;;;;;;5.15;2.75;;;;;;;15.43;100.00;63592.25;5007555;28;20214;-82
2023/10/28 04:29:51;;;;;;;4.13;2.92;;;;;;;15.35;100.00;63586.47;5012963;28;20207;-83
2023/10/28 04:32:22;;;;;;;10.45;3.03;;;;;;;15.40;100.00;63583.97;5010527;28;20227;-82
2023/10/28 04:34:51;;;;;;;3.40;3.20;;;;;;;15.40;100.00;63592.19;5002853;28;20211;-82
2023/10/28 04:37:18;;;;;;;2.85;2.65;;;;;;;15.34;100.00;63580.81;5012612;28;20266;-82
2023/10/28 04:39:45;;;;;;;2.80;2.60;;;;;;;15.32;100.00;63580.78;5012727;28;20229;-82
2023/10/28 04:42:13;;;;;;;6.63;3.13;;;;;;;15.26;100.00;63574.53;5010200;28;20286;-81
2023/10/28 04:44:40;;;;;;;4.50;2.72;;;;;;;15.23;100.00;63574.00;5013748;28;20202;-82
2023/10/28 04:47:07;;;;;;;5.22;3.03;;;;;;;15.12;100.00;63557.44;5012055;28;20223;-82
2023/10/28 04:49:37;;;;;;;2.97;2.75;;;;;;;15.13;100.00;63566.69;4997796;28;20208;-81
2023/10/28 04:52:08;;;;;;;2.67;2.47;;;;;;;14.88;100.00;63535.56;5010579;28;20215;-82
2023/10/28 04:54:35;;;;;;;4.15;2.67;;;;;;;14.89;100.00;63537.13;5012260;28;20257;-81
2023/10/28 04:57:03;;;;;;;2.58;2.40;;;;;;;14.74;100.00;63521.53;5008590;28;20295;-81
2023/10/28 04:59:30;;;;;;;6.55;3.35;;;;;;;14.77;100.00;63524.16;4998733;28;20207;-81
2023/10/28 05:02:07;;;;;;;6.15;2.85;;;;;;;14.61;100.00;63507.53;5020917;28;20231;-84
2023/10/28 05:04:36;;;;;;;4.60;2.75;;;;;;;14.64;100.00;63511.16;5013260;28;20226;-83
2023/10/28 05:07:04;;;;;;;4.85;2.70;;;;;;;14.79;100.00;63526.22;5012371;28;20227;-83
2023/10/28 05:09:31;;;;;;;4.00;2.92;;;;;;;14.84;100.00;63529.38;5013364;28;20555;-84
2023/10/28 05:12:00;;;;;;;3.63;2.70;;;;;;;14.83;100.00;63530.91;5017742;28;20258;-83
2023/10/28 05:14:27;;;;;;;5.88;3.42;;;;;;;14.95;100.00;63543.38;5013757;28;20219;-84
2023/10/28 05:16:55;;;;;;;3.55;2.25;;;;;;;14.95;100.00;63543.38;5012922;28;20246;-83
2023/10/28 05:19:22;;;;;;;4.97;3.05;;;;;;;14.87;100.00;63529.94;5011925;28;20206;-84
2023/10/28 05:21:51;;;;;;;3.80;2.95;;;;;;;15.01;100.00;63552.16;5012138;28;20278;-83
2023/10/28 05:24:18;;;;;;;5.35;2.70;;;;;;;14.99;100.00;63547.00;5011830;28;20305;-82
2023/10/28 05:26:45;;;;;;;2.92;2.42;;;;;;;15.13;100.00;63564.13;5010781;28;20230;-82
2023/10/28 05:29:12;;;;;;;3.88;2.50;;;;;;;15.17;100.00;63565.19;5008141;28;20195;-82
2023/10/28 05:31:39;;;;;;;3.50;2.60;;;;;;;15.23;100.00;63569.38;5000321;28;20230;-83
2023/10/28 05:34:07;;;;;;;3.03;2.83;;;;;;;15.32;100.00;63581.31;5010264;28;20555;-83
2023/10/28 05:36:34;;;;;;;2.60;2.40;;;;;;;15.40;100.00;63589.09;5010670;28;20294;-83
2023/10/28 05:39:03;;;;;;;6.20;4.70;;;;;;;15.42;100.00;63591.19;5012378;28;20218;-84
2023/10/28 05:41:30;;;;;;;2.75;2.55;;;;;;;15.39;100.00;63590.63;5005693;28;20215;-83
2023/10/28 05:43:59;;;;;;;7.55;2.88;;;;;;;15.62;100.00;63617.63;5009350;28;20499;-83
2023/10/28 05:46:27;;;;;;;3.28;2.63;;;;;;;15.56;100.00;63600.63;5011132;28;20229;-82
2023/10/28 05:48:56;;;;;;;3.05;2.85;;;;;;;15.62;100.00;63615.06;5010980;28;20199;-85
2023/10/28 05:51:24;;;;;;;2.92;2.45;;;;;;;15.69;100.00;63617.22;5001655;28;20257;-83
2023/10/28 05:53:51;;;;;;;6.85;2.80;;;;;;;15.75;100.00;63622.94;5000564;28;20206;-82
2023/10/28 05:56:19;;;;;;;3.67;2.72;;;;;;;15.85;100.00;63633.31;4998588;28;20199;-83
2023/10/28 05:58:48;;;;;;;4.30;2.60;;;;;;;16.00;100.00;63651.47;5005778;28;20203;-83
2023/10/28 06:01:18;;;;;;;3.83;2.42;;;;;;;16.11;100.00;63660.88;5011771;28;20229;-83
2023/10/28 06:03:49;;;;;;;3.47;2.85;;;;;;;16.25;100.00;63674.94;5017341;28;20229;-84
2023/10/28 06:06:17;;;;;;;4.70;2.35;;;;;;;16.35;100.00;63687.91;5009987;28;20222;-84
2023/10/28 06:08:44;;;;;;;3.05;2.85;;;;;;;16.26;100.00;63675.44;5003735;28;20206;-83
2023/10/28 06:11:11;;;;;;;7.10;3.15;;;;;;;16.42;100.00;63695.19;5008403;28;20210;-83
2023/10/28 06:13:39;;;;;;;2.92;2.72;;;;;;;16.58;100.00;63711.31;5006350;28;20225;-83
2023/10/28 06:16:07;;;;;;;7.78;3.05;;;;;;;16.79;100.00;63733.69;5007097;28;20214;-82
2023/10/28 06:18:34;;;;;;;4.07;2.53;;;;;;;16.88;100.00;63739.97;5002927;28;20198;-82
2023/10/28 06:21:01;;;;;;;16.45;12.23;;;;;;;17.00;100.00;63752.97;5001718;28;20225;-84
2023/10/28 06:23:28;;;;;;;10.57;3.83;;;;;;;17.17;100.00;63770.16;4994413;28;20307;-82
2023/10/28 06:25:58;;;;;;;5.35;3.50;;;;;;;17.24;100.00;63780.00;5001794;28;20222;-84
2023/10/28 06:28:25;;;;;;;3.30;3.00;;;;;;;17.45;100.00;63798.78;5003038;28;20203;-83
2023/10/28 06:30:54;;;;;;;5.53;3.40;;;;;;;17.63;100.00;63822.69;5003164;28;20226;-83
2023/10/28 06:33:22;;;;;;;2.40;2.22;;;;;;;17.59;100.00;63813.88;5002746;28;20257;-84
2023/10/28 06:35:49;;;;;;;3.03;2.50;;;;;;;17.50;100.00;63806.59;5004132;28;20223;-81
2023/10/28 06:38:17;;;;;;;2.22;2.13;;;;;;;17.62;100.00;63817.00;5006058;28;20201;-82
2023/10/28 06:40:47;;;;;;;3.00;2.70;;;;;;;17.69;100.00;63828.94;5009725;28;20225;-85
2023/10/28 06:43:14;;;;;;;4.97;3.45;;;;;;;17.64;100.00;63821.16;4996954;28;20222;-82
2023/10/28 06:45:42;;;;;;;6.97;2.83;;;;;;;17.76;100.00;63831.06;5003824;28;20226;-82
2023/10/28 06:48:11;;;;;;;6.43;2.67;;;;;;;17.81;100.00;63844.03;5004927;28;20278;-83
2023/10/28 06:50:38;;;;;;;8.63;2.22;;;;;;;17.85;100.00;63843.03;5004879;28;20222;-83
2023/10/28 06:53:05;;;;;;;2.42;2.22;;;;;;;18.02;100.00;63863.31;5000170;28;20210;-82
2023/10/28 06:55:32;;;;;;;4.13;2.28;;;;;;;18.10;100.00;63869.06;5007497;28;20238;-82
2023/10/28 06:58:00;;;;;;;5.78;2.22;;;;;;;18.00;100.00;63856.59;5011158;28;20193;-82
2023/10/28 07:00:28;;;;;;;4.70;2.53;;;;;;;17.79;100.00;63837.28;5008386;28;20215;-82
2023/10/28 07:02:56;;;;;;;6.75;3.42;;;;;;;17.65;100.00;63817.03;5002912;28;20317;-81
2023/10/28 07:05:25;;;;;;;8.15;3.00;;;;;;;17.73;100.00;63825.91;5004863;28;20213;-82
2023/10/28 07:07:54;;;;;;;4.65;3.30;;;;;;;17.93;100.00;63857.03;5011390;28;20245;-82
2023/10/28 07:10:22;;;;;;;8.18;2.85;;;;;;;17.80;100.00;63833.19;5010392;28;20215;-81
2023/10/28 07:12:50;;;;;;;6.75;2.88;;;;;;;17.79;100.00;63837.28;5009711;28;20226;-80
2023/10/28 07:15:18;;;;;;;9.02;2.95;;;;;;;17.63;100.00;63825.78;5012680;28;20222;-83
2023/10/28 07:17:46;;;;;;;5.75;2.85;;;;;;;17.77;100.00;63834.69;5001657;28;20222;-82
2023/10/28 07:20:13;;;;;;;9.80;6.90;;;;;;;17.92;100.00;63852.88;5004108;28;20222;-83
2023/10/28 07:22:42;;;;;;;5.30;3.22;;;;;;;18.08;99.68;63861.81;5011290;28;20542;-83
2023/10/28 07:25:10;;;;;;;8.20;3.17;;;;;;;18.14;98.66;63870.66;5008979;28;20195;-82
2023/10/28 07:27:37;;;;;;;5.03;2.63;;;;;;;18.02;99.69;63863.81;5002230;28;20200;-82
2023/10/28 07:30:06;;;;;;;3.13;2.78;;;;;;;18.33;97.00;63893.53;4998079;28;20223;-82
2023/10/28 07:32:34;;;;;;;5.15;2.70;;;;;;;18.40;96.32;63897.75;5019521;28;20206;-84
2023/10/28 07:35:02;;;;;;;3.17;2.90;;;;;;;18.41;96.27;63899.31;5017477;28;20198;-84
2023/10/28 07:37:33;;;;;;;5.57;2.90;;;;;;;18.45;96.59;63905.53;5013221;28;20190;-83
2023/10/28 07:40:03;;;;;;;3.28;2.10;;;;;;;18.53;94.52;63919.06;5014059;28;20201;-83
2023/10/28 07:42:30;;;;;;;3.92;2.88;;;;;;;18.48;94.03;63905.56;4995029;28;20590;-82
2023/10/28 07:44:57;;;;;;;4.78;2.90;;;;;;;18.31;94.85;63891.47;5012189;28;20202;-85
2023/10/28 07:47:25;;;;;;;4.93;2.50;;;;;;;18.34;95.80;63894.56;5015865;28;20186;-83
2023/10/28 07:49:52;;;;;;;5.05;2.63;;;;;;;18.65;93.71;63923.81;5009015;28;20226;-82
2023/10/28 07:52:20;;;;;;;5.78;2.35;;;;;;;18.91;92.33;63955.56;5008923;28;20230;-83
2023/10/28 07:54:47;;;;;;;7.00;2.60;;;;;;;19.01;91.99;63966.50;5012667;28;20237;-82
2023/10/28 07:57:15;;;;;;;4.35;2.83;;;;;;;18.71;90.45;63932.13;5009929;28;20219;-83
2023/10/28 07:59:43;;;;;;;9.32;4.10;;;;;;;18.88;89.89;63949.84;5009688;28;20367;-83
2023/10/28 08:02:11;;;;;;;4.93;3.00;;;;;;;18.83;89.29;63947.19;4999403;28;20232;-79
2023/10/28 08:04:38;;;;;;;7.10;3.10;;;;;;;18.84;90.51;63950.84;5014492;28;20238;-83
2023/10/28 08:07:05;;;;;;;3.72;3.40;;;;;;;19.10;89.49;63972.78;5017477;28;20218;-82
2023/10/28 08:09:32;;;;;;;4.78;2.38;;;;;;;19.06;88.04;63966.03;5016869;28;20199;-83
2023/10/28 08:12:00;;;;;;;4.30;3.00;;;;;;;19.27;85.49;63993.63;5019474;28;20217;-83
2023/10/28 08:14:31;;;;;;;2.65;2.45;;;;;;;19.44;85.07;64011.38;5010891;28;20222;-84
2023/10/28 08:16:58;;;;;;;5.97;3.10;;;;;;;19.38;84.40;64007.69;5011101;28;20449;-82
2023/10/28 08:19:28;;;;;;;3.25;2.83;;;;;;;19.51;85.06;64015.56;5011636;28;20198;-82
2023/10/28 08:21:55;;;;;;;5.45;2.78;;;;;;;19.50;nan;64014.50;5015042;28;20219;-84
2023/10/28 08:24:23;;;;;;;4.85;2.65;;;;;;;19.48;80.89;64015.00;5013807;28;20223;-81
2023/10/28 08:26:50;;;;;;;4.55;2.90;;;;;;;19.75;81.33;64040.06;5012343;28;20227;-83
2023/10/28 08:29:18;;;;;;;5.03;2.97;;;;;;;19.97;80.75;64068.69;5014087;28;20230;-84
2023/10/28 08:31:49;;;;;;;8.98;4.45;;;;;;;20.20;78.66;64084.44;5011792;28;20610;-82
2023/10/28 08:34:16;;;;;;;5.55;3.03;;;;;;;20.21;76.37;64091.19;5009911;28;20195;-83
2023/10/28 08:36:43;;;;;;;22.05;13.55;;;;;;;20.03;77.33;64069.81;5033193;28;20240;-82
2023/10/28 08:39:13;;;;;;;7.85;3.15;;;;;;;20.28;76.50;64095.91;5031258;28;20198;-83
2023/10/28 08:41:42;;;;;;;5.80;3.35;;;;;;;20.32;76.53;64102.66;5007923;28;20249;-87
2023/10/28 08:44:09;;;;;;;3.42;2.85;;;;;;;20.63;73.64;64135.03;5013790;28;20226;-84
2023/10/28 08:46:38;;;;;;;5.22;3.50;;;;;;;20.53;73.98;64122.00;5029959;28;20230;-84
2023/10/28 08:49:09;;;;;;;3.70;2.65;;;;;;;20.93;72.45;64160.13;5015070;28;20206;-81
2023/10/28 08:51:41;;;;;;;5.63;3.28;;;;;;;20.98;69.23;64165.34;5014695;28;20261;-83
2023/10/28 08:54:12;;;;;;;4.38;2.50;;;;;;;21.16;67.55;64186.72;5014261;28;20187;-82
2023/10/28 08:56:43;;;;;;;3.08;1.95;;;;;;;21.06;67.46;64176.81;5012073;28;20245;-82
2023/10/28 08:59:10;;;;;;;9.57;2.63;;;;;;;21.32;66.19;64203.44;5015052;28;20213;-83
2023/10/28 09:01:38;;;;;;;4.88;2.65;;;;;;;21.28;65.02;64199.78;5026839;28;20214;-83
2023/10/28 09:04:08;;;;;;;4.93;2.13;;;;;;;21.35;63.60;64206.56;5014315;28;20286;-83
2023/10/28 09:06:35;;;;;;;7.18;2.80;;;;;;;21.29;66.08;64200.84;5012251;28;20215;-85
2023/10/28 09:09:06;;;;;;;5.82;2.70;;;;;;;21.34;65.53;64205.53;5017475;28;20202;-84
2023/10/28 09:11:36;;;;;;;19.25;10.50;;;;;;;21.44;66.31;64219.09;5014851;28;20221;-85
2023/10/28 09:14:07;;;;;;;14.93;13.23;;;;;;;21.52;65.84;64227.44;5012279;28;20229;-85
2023/10/28 09:16:34;;;;;;;4.70;2.78;;;;;;;21.53;62.96;64225.91;5014615;28;20269;-85
2023/10/28 09:19:03;;;;;;;5.68;2.20;;;;;;;21.48;63.29;64222.75;5004248;28;20364;-85
2023/10/28 09:21:34;;;;;;;4.68;2.45;;;;;;;21.33;62.37;64205.00;4996309;28;20235;-85
2023/10/28 09:24:01;;;;;;;6.82;2.90;;;;;;;21.33;63.47;64210.19;5001723;28;20239;-85
2023/10/28 09:26:30;;;;;;;6.40;3.08;;;;;;;21.34;61.62;64208.66;5006282;28;20227;-84
2023/10/28 09:28:59;;;;;;;4.30;2.97;;;;;;;21.43;61.02;64218.03;5023727;28;20209;-85
2023/10/28 09:31:28;;;;;;;4.03;2.50;;;;;;;21.53;61.30;64222.78;5030956;28;20424;-85
2023/10/28 09:33:57;;;;;;;5.18;2.20;;;;;;;21.66;60.31;64238.97;5015978;28;20203;-84
2023/10/28 09:36:24;;;;;;;3.20;2.30;;;;;;;21.77;59.66;64253.59;5012178;28;20215;-83
2023/10/28 09:38:56;;;;;;;7.50;1.98;;;;;;;21.61;60.18;64234.25;5016561;28;20253;-82
2023/10/28 09:41:24;;;;;;;5.57;2.90;;;;;;;21.68;59.08;64246.75;5010423;28;20409;-81
2023/10/28 09:43:53;;;;;;;5.20;2.28;;;;;;;21.68;59.69;64243.66;5005906;28;20250;-86
2023/10/28 09:46:22;;;;;;;6.60;4.60;;;;;;;21.88;60.78;64261.97;5011433;28;20223;-84
2023/10/28 09:48:52;;;;;;;9.80;6.13;;;;;;;22.03;59.02;64282.84;5005983;28;20234;-85
2023/10/28 09:51:22;;;;;;;23.23;15.93;;;;;;;22.24;59.75;64299.06;4993984;28;20282;-85
2023/10/28 09:53:59;;;;;;;6.35;3.45;;;;;;;22.35;58.06;64310.56;4999678;28;20206;-81
2023/10/28 09:56:35;;;;;;;2.42;2.20;;;;;;;22.43;57.22;64319.47;5010911;28;20214;-81
2023/10/28 09:59:18;;;;;;;7.40;2.72;;;;;;;22.44;56.58;64314.78;4999067;28;20195;-83
2023/10/28 10:01:56;;;;;;;4.75;2.72;;;;;;;22.46;54.82;64322.06;5010631;28;20226;-83
2023/10/28 10:04:37;;;;;;;4.25;2.58;;;;;;;22.54;53.86;64333.56;5009006;28;20239;-82
2023/10/28 10:07:04;;;;;;;3.42;2.05;;;;;;;22.43;50.38;64326.72;5006210;28;20257;-81
2023/10/28 10:09:42;;;;;;;8.32;4.70;;;;;;;22.57;49.73;64331.00;5013551;28;20218;-82
2023/10/28 10:12:09;;;;;;;25.98;14.23;;;;;;;22.68;48.58;64342.47;4999970;28;20407;-82
2023/10/28 10:14:40;;;;;;;3.42;2.25;;;;;;;22.62;46.49;64341.41;5004796;28;20202;-83
2023/10/28 10:17:18;;;;;;;3.85;2.65;;;;;;;22.63;46.69;64339.84;5007811;28;20247;-82
2023/10/28 10:19:46;;;;;;;18.95;12.93;;;;;;;22.57;46.90;64341.88;5008693;28;20198;-85
2023/10/28 10:22:13;;;;;;;4.20;1.15;;;;;;;22.90;44.33;64368.06;5006432;28;20543;-83
2023/10/28 10:24:50;;;;;;;3.10;1.50;;;;;;;23.08;45.03;64386.91;5009590;28;20253;-83
2023/10/28 10:27:36;;;;;;;5.78;1.20;;;;;;;23.10;43.97;64393.69;5004939;28;20227;-81
2023/10/28 10:30:08;;;;;;;4.50;1.77;;;;;;;23.06;42.74;64389.47;5007183;28;20230;-81
2023/10/28 10:32:51;;;;;;;6.13;2.70;;;;;;;23.22;42.63;64406.22;5002952;28;20203;-83
2023/10/28 10:35:28;;;;;;;4.32;1.48;;;;;;;23.23;42.47;64402.59;4996581;28;20230;-81
2023/10/28 10:38:02;;;;;;;2.25;1.02;;;;;;;23.24;41.26;64403.66;5008514;28;20229;-82
2023/10/28 10:40:32;;;;;;;4.80;2.45;;;;;;;23.37;42.43;64414.66;5007488;28;20222;-83
2023/10/28 10:43:05;;;;;;;5.97;3.50;;;;;;;23.62;41.32;64446.03;5003637;28;20191;-82
2023/10/28 10:45:35;;;;;;;1.85;1.73;;;;;;;23.89;41.24;64474.28;5006846;28;20218;-83
2023/10/28 10:48:03;;;;;;;3.63;1.25;;;;;;;24.11;39.37;64498.88;5006253;28;20195;-82
2023/10/28 10:50:31;;;;;;;2.47;1.58;;;;;;;24.06;39.62;64491.03;5005293;28;20214;-81
2023/10/28 10:52:59;;;;;;;1.30;1.30;;;;;;;24.07;39.28;64492.63;5004300;28;20199;-83
2023/10/28 10:55:28;;;;;;;3.30;1.48;;;;;;;23.84;36.49;64465.91;5007275;28;20214;-82
2023/10/28 10:57:58;;;;;;;4.15;1.38;;;;;;;23.45;37.92;64427.72;5001606;28;20230;-83
2023/10/28 11:00:26;;;;;;;2.42;0.85;;;;;;;23.60;38.21;64443.94;5004137;28;20221;-82
2023/10/28 11:02:57;;;;;;;1.75;1.65;;;;;;;23.76;38.65;64455.47;5008779;28;20187;-83
2023/10/28 11:05:26;;;;;;;2.63;1.38;;;;;;;23.80;39.36;64472.13;5010902;28;20293;-84
2023/10/28 11:07:53;;;;;;;1.08;1.02;;;;;;;23.83;39.13;64464.88;5015843;28;20198;-82
2023/10/28 11:10:20;;;;;;;2.65;1.40;;;;;;;23.76;38.82;64458.06;5007741;28;20289;-82
2023/10/28 11:12:48;;;;;;;1.13;1.05;;;;;;;23.48;37.66;64433.44;5007931;28;20207;-84
2023/10/28 11:15:21;;;;;;;3.88;0.82;;;;;;;23.52;38.21;64430.34;5007788;28;20294;-84
2023/10/28 11:17:50;;;;;;;1.42;0.73;;;;;;;23.66;38.31;64447.59;4998131;28;20214;-82
2023/10/28 11:20:20;;;;;;;2.25;1.00;;;;;;;23.79;38.18;64463.81;5012856;28;20237;-83
2023/10/28 11:22:50;;;;;;;2.03;1.10;;;;;;;23.38;37.80;64420.38;5011797;28;20213;-83
2023/10/28 11:25:20;;;;;;;3.40;1.35;;;;;;;23.51;39.47;64434.50;5013339;28;20227;-83
2023/10/28 11:27:51;;;;;;;2.05;0.88;;;;;;;23.25;39.22;64409.88;5005918;28;20199;-83
2023/10/28 11:30:20;;;;;;;1.13;1.02;;;;;;;23.32;39.30;64411.50;5011479;28;20219;-85
2023/10/28 11:32:51;;;;;;;6.60;1.63;;;;;;;23.29;40.55;64411.50;5011205;28;20207;-83
2023/10/28 11:35:18;;;;;;;3.45;1.20;;;;;;;23.21;41.20;64405.69;5012513;28;20231;-84